sensor_id;sensor_type;location;lat;lon;timestamp;temperature;humidity
46440;DHT22;32138;50.966;6.968;2023-04-03T00:00:47;6.60;94.30
46440;DHT22;32138;50.966;6.968;2023-04-03T00:01:49;6.80;94.10
46440;DHT22;32138;50.966;6.968;2023-04-03T00:02:51;6.90;94.20
46440;DHT22;32138;50.966;6.968;2023-04-03T00:03:51;6.70;94.20
46440;DHT22;32138;50.966;6.968;2023-04-03T00:04:52;6.70;94.20
46440;DHT22;32138;50.966;6.968;2023-04-03T00:05:53;6.80;94.00
46440;DHT22;32138;50.966;6.968;2023-04-03T00:06:55;6.70;94.00
46440;DHT22;32138;50.966;6.968;2023-04-03T00:07:55;6.70;94.00
46440;DHT22;32138;50.966;6.968;2023-04-03T00:08:56;6.70;94.00
46440;DHT22;32138;50.966;6.968;2023-04-03T00:09:57;6.40;94.50
46440;DHT22;32138;50.966;6.968;2023-04-03T00:10:58;6.40;94.80
46440;DHT22;32138;50.966;6.968;2023-04-03T00:11:58;6.60;94.60
46440;DHT22;32138;50.966;6.968;2023-04-03T00:13:00;6.80;94.30
46440;DHT22;32138;50.966;6.968;2023-04-03T00:14:01;6.80;94.10
46440;DHT22;32138;50.966;6.968;2023-04-03T00:15:01;6.80;94.30
46440;DHT22;32138;50.966;6.968;2023-04-03T00:16:03;6.80;94.20
46440;DHT22;32138;50.966;6.968;2023-04-03T00:17:04;6.80;94.00
46440;DHT22;32138;50.966;6.968;2023-04-03T00:18:06;6.80;93.90
46440;DHT22;32138;50.966;6.968;2023-04-03T00:19:07;6.70;94.20
46440;DHT22;32138;50.966;6.968;2023-04-03T00:20:08;6.60;94.50
46440;DHT22;32138;50.966;6.968;2023-04-03T00:21:13;6.70;94.30
46440;DHT22;32138;50.966;6.968;2023-04-03T00:22:14;6.80;94.00
46440;DHT22;32138;50.966;6.968;2023-04-03T00:23:15;6.70;93.90
46440;DHT22;32138;50.966;6.968;2023-04-03T00:24:16;6.60;94.20
46440;DHT22;32138;50.966;6.968;2023-04-03T00:25:17;6.60;93.70
46440;DHT22;32138;50.966;6.968;2023-04-03T00:26:18;6.50;93.90
46440;DHT22;32138;50.966;6.968;2023-04-03T00:27:18;6.40;94.20
46440;DHT22;32138;50.966;6.968;2023-04-03T00:28:19;6.00;94.70
46440;DHT22;32138;50.966;6.968;2023-04-03T00:29:20;6.10;95.00
46440;DHT22;32138;50.966;6.968;2023-04-03T00:30:22;6.30;94.80
46440;DHT22;32138;50.966;6.968;2023-04-03T00:31:23;6.20;94.90
46440;DHT22;32138;50.966;6.968;2023-04-03T00:32:23;6.30;94.80
46440;DHT22;32138;50.966;6.968;2023-04-03T00:33:24;6.30;94.70
46440;DHT22;32138;50.966;6.968;2023-04-03T00:34:25;6.20;94.90
46440;DHT22;32138;50.966;6.968;2023-04-03T00:35:26;6.30;95.00
46440;DHT22;32138;50.966;6.968;2023-04-03T00:36:28;6.20;95.10
46440;DHT22;32138;50.966;6.968;2023-04-03T00:37:28;6.10;94.90
46440;DHT22;32138;50.966;6.968;2023-04-03T00:38:29;5.90;95.60
46440;DHT22;32138;50.966;6.968;2023-04-03T00:39:30;6.10;95.60
46440;DHT22;32138;50.966;6.968;2023-04-03T00:40:36;6.10;95.50
46440;DHT22;32138;50.966;6.968;2023-04-03T00:41:38;6.10;95.50
46440;DHT22;32138;50.966;6.968;2023-04-03T00:42:40;6.20;95.20
46440;DHT22;32138;50.966;6.968;2023-04-03T00:43:41;6.10;95.60
46440;DHT22;32138;50.966;6.968;2023-04-03T00:45:48;6.10;94.90
46440;DHT22;32138;50.966;6.968;2023-04-03T00:46:51;6.00;95.40
46440;DHT22;32138;50.966;6.968;2023-04-03T00:47:51;5.90;95.70
46440;DHT22;32138;50.966;6.968;2023-04-03T00:48:52;5.90;95.90
46440;DHT22;32138;50.966;6.968;2023-04-03T00:49:53;6.20;95.50
46440;DHT22;32138;50.966;6.968;2023-04-03T00:50:54;6.20;95.20
46440;DHT22;32138;50.966;6.968;2023-04-03T00:51:56;6.30;94.90
46440;DHT22;32138;50.966;6.968;2023-04-03T00:52:57;6.20;95.20
46440;DHT22;32138;50.966;6.968;2023-04-03T00:54:00;6.10;95.00
46440;DHT22;32138;50.966;6.968;2023-04-03T00:55:06;6.30;94.90
46440;DHT22;32138;50.966;6.968;2023-04-03T00:56:11;6.30;94.90
46440;DHT22;32138;50.966;6.968;2023-04-03T00:57:14;6.30;94.90
46440;DHT22;32138;50.966;6.968;2023-04-03T00:58:17;6.30;94.90
46440;DHT22;32138;50.966;6.968;2023-04-03T00:59:30;6.20;94.80
46440;DHT22;32138;50.966;6.968;2023-04-03T01:00:32;6.20;94.90
46440;DHT22;32138;50.966;6.968;2023-04-03T01:01:34;6.20;94.80
46440;DHT22;32138;50.966;6.968;2023-04-03T01:02:36;6.00;95.00
46440;DHT22;32138;50.966;6.968;2023-04-03T01:03:37;6.10;95.10
46440;DHT22;32138;50.966;6.968;2023-04-03T01:04:41;6.20;94.90
46440;DHT22;32138;50.966;6.968;2023-04-03T01:05:43;6.00;94.80
46440;DHT22;32138;50.966;6.968;2023-04-03T01:06:43;6.00;94.90
46440;DHT22;32138;50.966;6.968;2023-04-03T01:07:45;5.90;95.00
46440;DHT22;32138;50.966;6.968;2023-04-03T01:08:47;6.00;95.10
46440;DHT22;32138;50.966;6.968;2023-04-03T01:09:52;6.00;95.10
46440;DHT22;32138;50.966;6.968;2023-04-03T01:10:54;6.10;94.90
46440;DHT22;32138;50.966;6.968;2023-04-03T01:12:24;6.10;94.70
46440;DHT22;32138;50.966;6.968;2023-04-03T01:13:35;6.10;94.90
46440;DHT22;32138;50.966;6.968;2023-04-03T01:14:36;6.00;94.60
46440;DHT22;32138;50.966;6.968;2023-04-03T01:15:36;6.00;95.10
46440;DHT22;32138;50.966;6.968;2023-04-03T01:16:37;6.10;94.80
46440;DHT22;32138;50.966;6.968;2023-04-03T01:17:42;6.20;94.80
46440;DHT22;32138;50.966;6.968;2023-04-03T01:18:45;6.20;94.70
46440;DHT22;32138;50.966;6.968;2023-04-03T01:19:57;6.10;94.70
46440;DHT22;32138;50.966;6.968;2023-04-03T01:21:42;6.10;94.70
46440;DHT22;32138;50.966;6.968;2023-04-03T01:24:25;5.80;95.10
46440;DHT22;32138;50.966;6.968;2023-04-03T01:25:30;5.80;95.00
46440;DHT22;32138;50.966;6.968;2023-04-03T01:26:32;5.70;95.20
46440;DHT22;32138;50.966;6.968;2023-04-03T01:27:33;5.60;95.40
46440;DHT22;32138;50.966;6.968;2023-04-03T01:28:35;5.40;95.80
46440;DHT22;32138;50.966;6.968;2023-04-03T01:29:37;5.40;95.90
46440;DHT22;32138;50.966;6.968;2023-04-03T01:30:50;5.30;96.10
46440;DHT22;32138;50.966;6.968;2023-04-03T01:31:56;5.20;96.40
46440;DHT22;32138;50.966;6.968;2023-04-03T01:32:58;5.30;96.20
46440;DHT22;32138;50.966;6.968;2023-04-03T01:33:59;5.30;96.30
46440;DHT22;32138;50.966;6.968;2023-04-03T01:35:00;5.50;96.10
46440;DHT22;32138;50.966;6.968;2023-04-03T01:36:01;5.50;96.00
46440;DHT22;32138;50.966;6.968;2023-04-03T01:37:02;5.40;95.80
46440;DHT22;32138;50.966;6.968;2023-04-03T01:38:03;5.40;95.80
46440;DHT22;32138;50.966;6.968;2023-04-03T01:39:04;5.50;95.40
46440;DHT22;32138;50.966;6.968;2023-04-03T01:40:05;5.50;95.60
46440;DHT22;32138;50.966;6.968;2023-04-03T01:41:07;5.60;95.80
46440;DHT22;32138;50.966;6.968;2023-04-03T01:42:08;5.70;95.20
46440;DHT22;32138;50.966;6.968;2023-04-03T01:43:09;5.70;95.50
46440;DHT22;32138;50.966;6.968;2023-04-03T01:44:09;5.60;95.30
46440;DHT22;32138;50.966;6.968;2023-04-03T01:45:11;5.70;95.40
46440;DHT22;32138;50.966;6.968;2023-04-03T01:46:11;5.90;95.20
46440;DHT22;32138;50.966;6.968;2023-04-03T01:47:12;6.00;94.70
46440;DHT22;32138;50.966;6.968;2023-04-03T01:48:13;6.00;94.90
46440;DHT22;32138;50.966;6.968;2023-04-03T01:49:14;5.90;95.20
46440;DHT22;32138;50.966;6.968;2023-04-03T01:50:15;6.00;95.00
46440;DHT22;32138;50.966;6.968;2023-04-03T01:51:15;5.90;95.00
46440;DHT22;32138;50.966;6.968;2023-04-03T01:52:17;5.70;95.10
46440;DHT22;32138;50.966;6.968;2023-04-03T01:53:17;5.50;95.00
46440;DHT22;32138;50.966;6.968;2023-04-03T01:54:18;5.60;95.20
46440;DHT22;32138;50.966;6.968;2023-04-03T01:55:19;5.60;95.30
46440;DHT22;32138;50.966;6.968;2023-04-03T01:56:20;5.50;95.60
46440;DHT22;32138;50.966;6.968;2023-04-03T01:57:21;5.60;95.50
46440;DHT22;32138;50.966;6.968;2023-04-03T01:58:22;5.70;95.20
46440;DHT22;32138;50.966;6.968;2023-04-03T01:59:22;5.60;95.00
46440;DHT22;32138;50.966;6.968;2023-04-03T02:00:23;5.50;95.30
46440;DHT22;32138;50.966;6.968;2023-04-03T02:01:24;5.50;95.30
46440;DHT22;32138;50.966;6.968;2023-04-03T02:02:26;5.60;95.50
46440;DHT22;32138;50.966;6.968;2023-04-03T02:03:27;5.50;95.80
46440;DHT22;32138;50.966;6.968;2023-04-03T02:04:27;5.50;95.60
46440;DHT22;32138;50.966;6.968;2023-04-03T02:05:28;5.30;95.60
46440;DHT22;32138;50.966;6.968;2023-04-03T02:06:29;5.20;96.00
46440;DHT22;32138;50.966;6.968;2023-04-03T02:07:30;5.30;95.70
46440;DHT22;32138;50.966;6.968;2023-04-03T02:08:31;5.30;95.60
46440;DHT22;32138;50.966;6.968;2023-04-03T02:09:31;5.40;95.80
46440;DHT22;32138;50.966;6.968;2023-04-03T02:10:32;5.50;95.60
46440;DHT22;32138;50.966;6.968;2023-04-03T02:11:33;5.60;95.40
46440;DHT22;32138;50.966;6.968;2023-04-03T02:12:33;5.60;95.10
46440;DHT22;32138;50.966;6.968;2023-04-03T02:13:34;5.50;94.90
46440;DHT22;32138;50.966;6.968;2023-04-03T02:14:35;5.40;95.40
46440;DHT22;32138;50.966;6.968;2023-04-03T02:15:38;5.30;95.30
46440;DHT22;32138;50.966;6.968;2023-04-03T02:16:39;5.20;95.80
46440;DHT22;32138;50.966;6.968;2023-04-03T02:17:41;5.20;95.90
46440;DHT22;32138;50.966;6.968;2023-04-03T02:18:42;5.30;95.90
46440;DHT22;32138;50.966;6.968;2023-04-03T02:19:43;5.20;96.20
46440;DHT22;32138;50.966;6.968;2023-04-03T02:20:44;5.20;96.10
46440;DHT22;32138;50.966;6.968;2023-04-03T02:21:44;5.20;95.80
46440;DHT22;32138;50.966;6.968;2023-04-03T02:22:45;5.10;95.70
46440;DHT22;32138;50.966;6.968;2023-04-03T02:23:46;4.90;95.90
46440;DHT22;32138;50.966;6.968;2023-04-03T02:24:47;5.20;96.10
46440;DHT22;32138;50.966;6.968;2023-04-03T02:25:47;5.20;96.00
46440;DHT22;32138;50.966;6.968;2023-04-03T02:26:49;5.20;96.40
46440;DHT22;32138;50.966;6.968;2023-04-03T02:27:50;5.30;95.90
46440;DHT22;32138;50.966;6.968;2023-04-03T02:28:50;5.30;95.80
46440;DHT22;32138;50.966;6.968;2023-04-03T02:29:51;5.30;95.90
46440;DHT22;32138;50.966;6.968;2023-04-03T02:30:52;5.40;95.90
46440;DHT22;32138;50.966;6.968;2023-04-03T02:31:53;5.40;95.40
46440;DHT22;32138;50.966;6.968;2023-04-03T02:32:53;5.50;95.60
46440;DHT22;32138;50.966;6.968;2023-04-03T02:33:54;5.50;95.90
46440;DHT22;32138;50.966;6.968;2023-04-03T02:34:55;5.60;95.50
46440;DHT22;32138;50.966;6.968;2023-04-03T02:35:57;5.50;95.30
46440;DHT22;32138;50.966;6.968;2023-04-03T02:36:58;5.50;95.60
46440;DHT22;32138;50.966;6.968;2023-04-03T02:37:58;5.50;95.60
46440;DHT22;32138;50.966;6.968;2023-04-03T02:38:59;5.60;95.40
46440;DHT22;32138;50.966;6.968;2023-04-03T02:40:00;5.60;95.60
46440;DHT22;32138;50.966;6.968;2023-04-03T02:41:02;5.50;95.40
46440;DHT22;32138;50.966;6.968;2023-04-03T02:42:04;5.30;95.80
46440;DHT22;32138;50.966;6.968;2023-04-03T02:43:05;5.30;95.90
46440;DHT22;32138;50.966;6.968;2023-04-03T02:44:08;5.30;95.40
46440;DHT22;32138;50.966;6.968;2023-04-03T02:45:10;5.00;96.20
46440;DHT22;32138;50.966;6.968;2023-04-03T02:46:10;5.10;96.30
46440;DHT22;32138;50.966;6.968;2023-04-03T02:47:11;5.00;96.10
46440;DHT22;32138;50.966;6.968;2023-04-03T02:48:12;5.00;96.40
46440;DHT22;32138;50.966;6.968;2023-04-03T02:49:13;5.20;96.20
46440;DHT22;32138;50.966;6.968;2023-04-03T02:50:13;5.50;95.30
46440;DHT22;32138;50.966;6.968;2023-04-03T02:51:14;5.60;95.40
46440;DHT22;32138;50.966;6.968;2023-04-03T02:52:15;5.50;95.50
46440;DHT22;32138;50.966;6.968;2023-04-03T02:53:16;5.50;95.20
46440;DHT22;32138;50.966;6.968;2023-04-03T02:54:17;5.40;95.50
46440;DHT22;32138;50.966;6.968;2023-04-03T02:55:18;5.30;95.70
46440;DHT22;32138;50.966;6.968;2023-04-03T02:56:19;5.20;96.10
46440;DHT22;32138;50.966;6.968;2023-04-03T02:57:20;5.20;96.30
46440;DHT22;32138;50.966;6.968;2023-04-03T02:58:21;5.10;96.00
46440;DHT22;32138;50.966;6.968;2023-04-03T02:59:22;5.10;96.10
46440;DHT22;32138;50.966;6.968;2023-04-03T03:00:23;4.90;96.00
46440;DHT22;32138;50.966;6.968;2023-04-03T03:01:23;4.90;96.20
46440;DHT22;32138;50.966;6.968;2023-04-03T03:02:24;4.80;96.50
46440;DHT22;32138;50.966;6.968;2023-04-03T03:03:25;4.80;96.40
46440;DHT22;32138;50.966;6.968;2023-04-03T03:04:26;5.10;96.10
46440;DHT22;32138;50.966;6.968;2023-04-03T03:05:28;5.10;96.10
46440;DHT22;32138;50.966;6.968;2023-04-03T03:06:29;5.10;95.70
46440;DHT22;32138;50.966;6.968;2023-04-03T03:07:30;5.20;95.70
46440;DHT22;32138;50.966;6.968;2023-04-03T03:08:31;5.10;95.60
46440;DHT22;32138;50.966;6.968;2023-04-03T03:09:32;5.10;95.90
46440;DHT22;32138;50.966;6.968;2023-04-03T03:10:33;5.30;95.90
46440;DHT22;32138;50.966;6.968;2023-04-03T03:11:34;5.40;95.80
46440;DHT22;32138;50.966;6.968;2023-04-03T03:12:35;5.30;95.30
46440;DHT22;32138;50.966;6.968;2023-04-03T03:13:36;5.20;95.40
46440;DHT22;32138;50.966;6.968;2023-04-03T03:14:36;5.00;95.80
46440;DHT22;32138;50.966;6.968;2023-04-03T03:15:37;5.20;95.80
46440;DHT22;32138;50.966;6.968;2023-04-03T03:16:38;5.20;95.90
46440;DHT22;32138;50.966;6.968;2023-04-03T03:17:39;5.10;95.60
46440;DHT22;32138;50.966;6.968;2023-04-03T03:18:40;5.30;95.50
46440;DHT22;32138;50.966;6.968;2023-04-03T03:19:40;5.30;95.60
46440;DHT22;32138;50.966;6.968;2023-04-03T03:20:41;5.40;95.30
46440;DHT22;32138;50.966;6.968;2023-04-03T03:21:42;5.40;95.00
46440;DHT22;32138;50.966;6.968;2023-04-03T03:22:43;5.40;95.10
46440;DHT22;32138;50.966;6.968;2023-04-03T03:23:43;5.40;95.20
46440;DHT22;32138;50.966;6.968;2023-04-03T03:24:44;5.40;95.10
46440;DHT22;32138;50.966;6.968;2023-04-03T03:25:45;5.50;94.90
46440;DHT22;32138;50.966;6.968;2023-04-03T03:26:46;5.30;95.00
46440;DHT22;32138;50.966;6.968;2023-04-03T03:27:46;5.00;94.90
46440;DHT22;32138;50.966;6.968;2023-04-03T03:28:47;5.10;95.50
46440;DHT22;32138;50.966;6.968;2023-04-03T03:29:48;5.20;95.50
46440;DHT22;32138;50.966;6.968;2023-04-03T03:30:49;5.30;95.20
46440;DHT22;32138;50.966;6.968;2023-04-03T03:31:51;5.30;95.20
46440;DHT22;32138;50.966;6.968;2023-04-03T03:32:52;5.30;95.00
46440;DHT22;32138;50.966;6.968;2023-04-03T03:33:52;5.00;95.20
46440;DHT22;32138;50.966;6.968;2023-04-03T03:34:53;5.10;95.30
46440;DHT22;32138;50.966;6.968;2023-04-03T03:35:54;5.20;95.60
46440;DHT22;32138;50.966;6.968;2023-04-03T03:36:56;5.30;95.40
46440;DHT22;32138;50.966;6.968;2023-04-03T03:37:56;5.30;94.90
46440;DHT22;32138;50.966;6.968;2023-04-03T03:38:57;5.20;95.10
46440;DHT22;32138;50.966;6.968;2023-04-03T03:39:58;5.30;95.00
46440;DHT22;32138;50.966;6.968;2023-04-03T03:40:58;5.20;94.90
46440;DHT22;32138;50.966;6.968;2023-04-03T03:41:59;5.20;95.10
46440;DHT22;32138;50.966;6.968;2023-04-03T03:43:00;5.20;95.00
46440;DHT22;32138;50.966;6.968;2023-04-03T03:44:01;5.40;94.90
46440;DHT22;32138;50.966;6.968;2023-04-03T03:45:02;5.30;94.90
46440;DHT22;32138;50.966;6.968;2023-04-03T03:46:03;5.40;95.00
46440;DHT22;32138;50.966;6.968;2023-04-03T03:47:04;5.40;94.60
46440;DHT22;32138;50.966;6.968;2023-04-03T03:48:06;5.40;94.70
46440;DHT22;32138;50.966;6.968;2023-04-03T03:49:07;5.30;94.50
46440;DHT22;32138;50.966;6.968;2023-04-03T03:50:08;5.30;94.70
46440;DHT22;32138;50.966;6.968;2023-04-03T03:51:09;5.20;94.90
46440;DHT22;32138;50.966;6.968;2023-04-03T03:52:10;5.20;95.00
46440;DHT22;32138;50.966;6.968;2023-04-03T03:53:11;5.30;94.80
46440;DHT22;32138;50.966;6.968;2023-04-03T03:54:12;5.40;94.50
46440;DHT22;32138;50.966;6.968;2023-04-03T03:55:13;5.30;94.40
46440;DHT22;32138;50.966;6.968;2023-04-03T03:56:14;5.30;94.60
46440;DHT22;32138;50.966;6.968;2023-04-03T03:57:15;5.30;94.50
46440;DHT22;32138;50.966;6.968;2023-04-03T03:58:16;5.30;94.30
46440;DHT22;32138;50.966;6.968;2023-04-03T03:59:17;5.40;94.50
46440;DHT22;32138;50.966;6.968;2023-04-03T04:00:18;5.40;94.20
46440;DHT22;32138;50.966;6.968;2023-04-03T04:01:19;5.20;94.40
46440;DHT22;32138;50.966;6.968;2023-04-03T04:02:20;5.30;94.60
46440;DHT22;32138;50.966;6.968;2023-04-03T04:03:21;5.40;94.20
46440;DHT22;32138;50.966;6.968;2023-04-03T04:04:21;5.30;94.10
46440;DHT22;32138;50.966;6.968;2023-04-03T04:05:22;5.30;94.60
46440;DHT22;32138;50.966;6.968;2023-04-03T04:06:23;5.40;94.20
46440;DHT22;32138;50.966;6.968;2023-04-03T04:07:24;5.40;94.20
46440;DHT22;32138;50.966;6.968;2023-04-03T04:08:28;5.50;94.00
46440;DHT22;32138;50.966;6.968;2023-04-03T04:09:29;5.50;94.20
46440;DHT22;32138;50.966;6.968;2023-04-03T04:10:30;5.50;94.10
46440;DHT22;32138;50.966;6.968;2023-04-03T04:11:30;5.30;94.30
46440;DHT22;32138;50.966;6.968;2023-04-03T04:12:32;5.30;94.20
46440;DHT22;32138;50.966;6.968;2023-04-03T04:13:33;5.40;94.20
46440;DHT22;32138;50.966;6.968;2023-04-03T04:14:34;5.40;94.20
46440;DHT22;32138;50.966;6.968;2023-04-03T04:15:35;5.50;94.00
46440;DHT22;32138;50.966;6.968;2023-04-03T04:16:35;5.40;94.00
46440;DHT22;32138;50.966;6.968;2023-04-03T04:17:36;5.30;93.60
46440;DHT22;32138;50.966;6.968;2023-04-03T04:18:37;5.20;94.20
46440;DHT22;32138;50.966;6.968;2023-04-03T04:19:38;5.30;94.30
46440;DHT22;32138;50.966;6.968;2023-04-03T04:20:38;5.30;94.30
46440;DHT22;32138;50.966;6.968;2023-04-03T04:21:39;5.40;94.00
46440;DHT22;32138;50.966;6.968;2023-04-03T04:22:41;5.50;94.00
46440;DHT22;32138;50.966;6.968;2023-04-03T04:23:42;5.60;93.90
46440;DHT22;32138;50.966;6.968;2023-04-03T04:24:43;5.50;93.90
46440;DHT22;32138;50.966;6.968;2023-04-03T04:25:47;5.60;93.80
46440;DHT22;32138;50.966;6.968;2023-04-03T04:26:49;5.50;93.60
46440;DHT22;32138;50.966;6.968;2023-04-03T04:27:49;5.30;94.10
46440;DHT22;32138;50.966;6.968;2023-04-03T04:28:50;5.20;94.10
46440;DHT22;32138;50.966;6.968;2023-04-03T04:29:51;5.30;94.30
46440;DHT22;32138;50.966;6.968;2023-04-03T04:30:51;5.30;94.10
46440;DHT22;32138;50.966;6.968;2023-04-03T04:31:52;5.40;94.20
46440;DHT22;32138;50.966;6.968;2023-04-03T04:32:53;5.40;94.20
46440;DHT22;32138;50.966;6.968;2023-04-03T04:33:54;5.50;93.90
46440;DHT22;32138;50.966;6.968;2023-04-03T04:34:54;5.50;94.20
46440;DHT22;32138;50.966;6.968;2023-04-03T04:35:55;5.50;94.00
46440;DHT22;32138;50.966;6.968;2023-04-03T04:36:56;5.50;93.80
46440;DHT22;32138;50.966;6.968;2023-04-03T04:37:57;5.40;94.00
46440;DHT22;32138;50.966;6.968;2023-04-03T04:38:58;5.40;94.00
46440;DHT22;32138;50.966;6.968;2023-04-03T04:39:59;5.30;94.10
46440;DHT22;32138;50.966;6.968;2023-04-03T04:41:00;5.20;94.30
46440;DHT22;32138;50.966;6.968;2023-04-03T04:42:00;5.20;94.50
46440;DHT22;32138;50.966;6.968;2023-04-03T04:43:01;5.20;94.40
46440;DHT22;32138;50.966;6.968;2023-04-03T04:44:02;5.10;94.50
46440;DHT22;32138;50.966;6.968;2023-04-03T04:45:03;5.30;94.30
46440;DHT22;32138;50.966;6.968;2023-04-03T04:46:06;5.50;94.00
46440;DHT22;32138;50.966;6.968;2023-04-03T04:47:08;5.50;93.80
46440;DHT22;32138;50.966;6.968;2023-04-03T04:48:09;5.40;93.90
46440;DHT22;32138;50.966;6.968;2023-04-03T04:49:10;5.20;94.30
46440;DHT22;32138;50.966;6.968;2023-04-03T04:50:11;5.40;94.30
46440;DHT22;32138;50.966;6.968;2023-04-03T04:51:12;5.40;94.20
46440;DHT22;32138;50.966;6.968;2023-04-03T04:52:12;5.20;93.70
46440;DHT22;32138;50.966;6.968;2023-04-03T04:53:13;5.20;94.10
46440;DHT22;32138;50.966;6.968;2023-04-03T04:54:14;5.30;94.00
46440;DHT22;32138;50.966;6.968;2023-04-03T04:55:15;5.30;94.10
46440;DHT22;32138;50.966;6.968;2023-04-03T04:56:15;5.40;94.10
46440;DHT22;32138;50.966;6.968;2023-04-03T04:57:16;5.40;94.20
46440;DHT22;32138;50.966;6.968;2023-04-03T04:58:17;5.40;93.90
46440;DHT22;32138;50.966;6.968;2023-04-03T04:59:18;5.40;93.80
46440;DHT22;32138;50.966;6.968;2023-04-03T05:00:19;5.50;93.70
46440;DHT22;32138;50.966;6.968;2023-04-03T05:01:20;5.60;93.70
46440;DHT22;32138;50.966;6.968;2023-04-03T05:02:21;5.50;93.40
46440;DHT22;32138;50.966;6.968;2023-04-03T05:03:22;5.40;93.50
46440;DHT22;32138;50.966;6.968;2023-04-03T05:04:22;5.40;93.50
46440;DHT22;32138;50.966;6.968;2023-04-03T05:05:23;5.30;93.50
46440;DHT22;32138;50.966;6.968;2023-04-03T05:06:24;5.40;93.60
46440;DHT22;32138;50.966;6.968;2023-04-03T05:07:25;5.30;93.40
46440;DHT22;32138;50.966;6.968;2023-04-03T05:08:26;5.20;93.30
46440;DHT22;32138;50.966;6.968;2023-04-03T05:09:27;5.30;93.70
46440;DHT22;32138;50.966;6.968;2023-04-03T05:10:28;4.90;94.00
46440;DHT22;32138;50.966;6.968;2023-04-03T05:11:28;5.00;94.00
46440;DHT22;32138;50.966;6.968;2023-04-03T05:12:29;5.20;94.00
46440;DHT22;32138;50.966;6.968;2023-04-03T05:13:30;5.30;94.00
46440;DHT22;32138;50.966;6.968;2023-04-03T05:14:31;5.30;94.10
46440;DHT22;32138;50.966;6.968;2023-04-03T05:15:31;5.20;94.20
46440;DHT22;32138;50.966;6.968;2023-04-03T05:17:48;5.40;93.40
46440;DHT22;32138;50.966;6.968;2023-04-03T05:18:49;5.20;93.20
46440;DHT22;32138;50.966;6.968;2023-04-03T05:19:50;5.20;93.50
46440;DHT22;32138;50.966;6.968;2023-04-03T05:20:51;5.20;93.40
46440;DHT22;32138;50.966;6.968;2023-04-03T05:21:52;5.20;93.50
46440;DHT22;32138;50.966;6.968;2023-04-03T05:22:52;5.20;93.50
46440;DHT22;32138;50.966;6.968;2023-04-03T05:23:53;5.10;93.60
46440;DHT22;32138;50.966;6.968;2023-04-03T05:24:54;5.10;93.40
46440;DHT22;32138;50.966;6.968;2023-04-03T05:25:55;5.10;93.50
46440;DHT22;32138;50.966;6.968;2023-04-03T05:26:55;5.00;93.80
46440;DHT22;32138;50.966;6.968;2023-04-03T05:27:56;5.10;93.70
46440;DHT22;32138;50.966;6.968;2023-04-03T05:28:57;5.30;93.50
46440;DHT22;32138;50.966;6.968;2023-04-03T05:29:58;5.30;93.20
46440;DHT22;32138;50.966;6.968;2023-04-03T05:31:00;5.20;93.60
46440;DHT22;32138;50.966;6.968;2023-04-03T05:32:00;5.30;93.40
46440;DHT22;32138;50.966;6.968;2023-04-03T05:33:01;5.30;93.20
46440;DHT22;32138;50.966;6.968;2023-04-03T05:34:02;5.20;93.50
46440;DHT22;32138;50.966;6.968;2023-04-03T05:35:04;5.20;94.40
46440;DHT22;32138;50.966;6.968;2023-04-03T05:36:06;5.30;95.00
46440;DHT22;32138;50.966;6.968;2023-04-03T05:37:07;5.40;94.10
46440;DHT22;32138;50.966;6.968;2023-04-03T05:38:08;5.20;94.30
46440;DHT22;32138;50.966;6.968;2023-04-03T05:39:09;5.40;94.60
46440;DHT22;32138;50.966;6.968;2023-04-03T05:40:10;5.40;94.70
46440;DHT22;32138;50.966;6.968;2023-04-03T05:41:11;5.40;95.00
46440;DHT22;32138;50.966;6.968;2023-04-03T05:42:12;5.40;94.60
46440;DHT22;32138;50.966;6.968;2023-04-03T05:43:14;5.50;94.30
46440;DHT22;32138;50.966;6.968;2023-04-03T05:44:15;5.40;93.70
46440;DHT22;32138;50.966;6.968;2023-04-03T05:45:16;5.40;93.50
46440;DHT22;32138;50.966;6.968;2023-04-03T05:46:18;5.40;93.60
46440;DHT22;32138;50.966;6.968;2023-04-03T05:47:19;5.20;94.20
46440;DHT22;32138;50.966;6.968;2023-04-03T05:48:20;5.20;94.00
46440;DHT22;32138;50.966;6.968;2023-04-03T05:49:21;5.20;94.10
46440;DHT22;32138;50.966;6.968;2023-04-03T05:50:22;5.20;94.40
46440;DHT22;32138;50.966;6.968;2023-04-03T05:51:24;5.20;94.10
46440;DHT22;32138;50.966;6.968;2023-04-03T05:52:30;5.00;94.30
46440;DHT22;32138;50.966;6.968;2023-04-03T05:53:36;5.00;94.40
46440;DHT22;32138;50.966;6.968;2023-04-03T05:54:39;5.10;94.30
46440;DHT22;32138;50.966;6.968;2023-04-03T05:55:40;5.00;94.30
46440;DHT22;32138;50.966;6.968;2023-04-03T05:56:41;5.00;94.30
46440;DHT22;32138;50.966;6.968;2023-04-03T05:57:41;4.90;94.30
46440;DHT22;32138;50.966;6.968;2023-04-03T05:58:42;4.80;94.40
46440;DHT22;32138;50.966;6.968;2023-04-03T05:59:44;5.00;94.20
46440;DHT22;32138;50.966;6.968;2023-04-03T06:00:45;4.90;94.30
46440;DHT22;32138;50.966;6.968;2023-04-03T06:01:47;5.00;94.30
46440;DHT22;32138;50.966;6.968;2023-04-03T06:02:48;4.90;94.30
46440;DHT22;32138;50.966;6.968;2023-04-03T06:03:48;4.90;94.30
46440;DHT22;32138;50.966;6.968;2023-04-03T06:04:49;5.10;93.70
46440;DHT22;32138;50.966;6.968;2023-04-03T06:05:51;5.00;94.20
46440;DHT22;32138;50.966;6.968;2023-04-03T06:06:57;5.10;93.90
46440;DHT22;32138;50.966;6.968;2023-04-03T06:07:58;5.20;93.70
46440;DHT22;32138;50.966;6.968;2023-04-03T06:08:59;5.20;93.70
46440;DHT22;32138;50.966;6.968;2023-04-03T06:10:00;5.20;93.70
46440;DHT22;32138;50.966;6.968;2023-04-03T06:11:01;5.20;93.90
46440;DHT22;32138;50.966;6.968;2023-04-03T06:12:02;5.30;94.00
46440;DHT22;32138;50.966;6.968;2023-04-03T06:13:04;5.40;94.10
46440;DHT22;32138;50.966;6.968;2023-04-03T06:14:05;5.40;94.50
46440;DHT22;32138;50.966;6.968;2023-04-03T06:15:06;5.40;94.10
46440;DHT22;32138;50.966;6.968;2023-04-03T06:16:12;5.50;93.60
46440;DHT22;32138;50.966;6.968;2023-04-03T06:17:17;5.50;93.50
46440;DHT22;32138;50.966;6.968;2023-04-03T06:18:18;5.50;93.30
46440;DHT22;32138;50.966;6.968;2023-04-03T06:19:20;5.60;93.30
46440;DHT22;32138;50.966;6.968;2023-04-03T06:20:21;5.70;92.90
46440;DHT22;32138;50.966;6.968;2023-04-03T06:21:22;5.70;93.40
46440;DHT22;32138;50.966;6.968;2023-04-03T06:22:23;5.60;93.20
46440;DHT22;32138;50.966;6.968;2023-04-03T06:23:25;5.60;93.30
46440;DHT22;32138;50.966;6.968;2023-04-03T06:24:27;5.60;93.30
46440;DHT22;32138;50.966;6.968;2023-04-03T06:25:27;5.70;92.90
46440;DHT22;32138;50.966;6.968;2023-04-03T06:26:28;5.70;92.90
46440;DHT22;32138;50.966;6.968;2023-04-03T06:27:29;5.80;92.70
46440;DHT22;32138;50.966;6.968;2023-04-03T06:28:30;5.70;92.80
46440;DHT22;32138;50.966;6.968;2023-04-03T06:29:31;5.70;92.80
46440;DHT22;32138;50.966;6.968;2023-04-03T06:30:31;5.60;92.80
46440;DHT22;32138;50.966;6.968;2023-04-03T06:31:32;5.70;92.90
46440;DHT22;32138;50.966;6.968;2023-04-03T06:32:33;5.80;92.70
46440;DHT22;32138;50.966;6.968;2023-04-03T06:33:34;5.90;92.50
46440;DHT22;32138;50.966;6.968;2023-04-03T06:34:35;5.90;92.40
46440;DHT22;32138;50.966;6.968;2023-04-03T06:35:36;5.90;92.40
46440;DHT22;32138;50.966;6.968;2023-04-03T06:36:39;5.90;92.40
46440;DHT22;32138;50.966;6.968;2023-04-03T06:37:40;5.90;92.30
46440;DHT22;32138;50.966;6.968;2023-04-03T06:38:40;5.90;92.40